Time;durP1;ratioP1;P1;durP2;ratioP2;P2;SDS_P1;SDS_P2;PMS_P1;PMS_P2;Temp;Humidity;BMP_temperature;BMP_pressure;BME280_temperature;BME280_humidity;BME280_pressure;Samples;Min_cycle;Max_cycle;Signal;HPM_P1;HPM_P2
2022/03/28 00:00:38;;;;;;;6.03;4.20;;;11.30;34.60;;;;;;5051306;28;20264;-34
2022/03/28 00:03:05;;;;;;;7.60;4.50;;;11.30;34.20;;;;;;5052162;28;20209;-34
2022/03/28 00:05:32;;;;;;;12.70;5.68;;;11.20;34.30;;;;;;5052456;28;20784;-34
2022/03/28 00:07:58;;;;;;;7.10;4.63;;;11.20;34.00;;;;;;5052637;28;20165;-34
2022/03/28 00:10:24;;;;;;;8.02;5.40;;;11.20;34.50;;;;;;5052352;28;20181;-34
2022/03/28 00:12:50;;;;;;;9.35;5.05;;;11.10;34.50;;;;;;5052350;28;20189;-34
2022/03/28 00:15:16;;;;;;;4.90;3.83;;;11.10;34.40;;;;;;5052501;28;20195;-34
2022/03/28 00:17:42;;;;;;;5.23;3.30;;;11.10;34.40;;;;;;5052320;28;20541;-34
2022/03/28 00:20:11;;;;;;;6.07;4.33;;;11.00;34.70;;;;;;5052185;28;20165;-34
2022/03/28 00:22:41;;;;;;;4.43;2.75;;;11.00;34.50;;;;;;5052198;28;20243;-34
2022/03/28 00:25:08;;;;;;;6.57;4.53;;;11.00;34.70;;;;;;5051611;28;20177;-35
2022/03/28 00:27:34;;;;;;;5.03;3.92;;;11.00;34.80;;;;;;5051321;28;20169;-34
2022/03/28 00:30:00;;;;;;;6.90;4.33;;;11.00;35.00;;;;;;5051894;28;20714;-34
2022/03/28 00:32:26;;;;;;;7.63;3.83;;;11.00;35.00;;;;;;5051948;28;20546;-34
2022/03/28 00:34:53;;;;;;;8.30;4.77;;;11.00;34.80;;;;;;5052173;28;20252;-34
2022/03/28 00:37:19;;;;;;;11.30;4.45;;;11.00;34.70;;;;;;5052270;28;20177;-34
2022/03/28 00:39:44;;;;;;;8.50;4.28;;;10.90;34.80;;;;;;5051573;28;20180;-34
2022/03/28 00:42:11;;;;;;;7.50;4.53;;;10.90;35.10;;;;;;5045390;28;20213;-34
2022/03/28 00:44:37;;;;;;;8.48;4.53;;;10.90;35.10;;;;;;5049079;28;20192;-34
2022/03/28 00:47:03;;;;;;;5.50;4.27;;;10.90;35.10;;;;;;5052065;28;20217;-34
2022/03/28 00:49:29;;;;;;;5.57;3.65;;;10.90;35.10;;;;;;5051816;28;20828;-34
2022/03/28 00:51:55;;;;;;;4.15;2.72;;;10.90;35.30;;;;;;5051838;28;20247;-34
2022/03/28 00:54:21;;;;;;;5.65;4.40;;;10.80;35.30;;;;;;5051840;28;20204;-34
2022/03/28 00:56:48;;;;;;;7.10;3.78;;;10.80;35.40;;;;;;5051917;28;20173;-34
2022/03/28 00:59:15;;;;;;;4.63;3.35;;;10.80;35.40;;;;;;5050285;28;20204;-34
2022/03/28 01:01:41;;;;;;;4.32;3.33;;;10.80;35.50;;;;;;5043472;28;20196;-34
2022/03/28 01:04:08;;;;;;;9.23;3.97;;;10.70;35.80;;;;;;5051664;28;20201;-34
2022/03/28 01:06:38;;;;;;;11.10;5.00;;;10.70;35.70;;;;;;5051962;28;20222;-34
2022/03/28 01:09:04;;;;;;;5.82;4.35;;;10.70;35.40;;;;;;5051885;28;20291;-34
2022/03/28 01:11:33;;;;;;;5.85;3.25;;;10.70;35.50;;;;;;5055677;28;20204;-34
2022/03/28 01:13:59;;;;;;;18.05;5.03;;;10.60;35.50;;;;;;5055732;28;20200;-34
2022/03/28 01:16:28;;;;;;;9.68;3.95;;;10.70;35.70;;;;;;5055749;28;20170;-34
2022/03/28 01:18:54;;;;;;;12.65;4.18;;;10.60;35.50;;;;;;5055460;28;20178;-34
2022/03/28 01:21:20;;;;;;;5.37;4.23;;;10.60;35.70;;;;;;5055865;28;20268;-34
2022/03/28 01:23:46;;;;;;;6.33;3.23;;;10.50;35.40;;;;;;5054642;28;20224;-34
2022/03/28 01:26:13;;;;;;;5.95;3.67;;;10.50;35.70;;;;;;5055476;28;20177;-34
2022/03/28 01:28:39;;;;;;;7.45;3.33;;;10.50;35.90;;;;;;5055294;28;20518;-34
2022/03/28 01:31:05;;;;;;;4.38;2.33;;;10.50;35.90;;;;;;5055478;28;20215;-34
2022/03/28 01:33:30;;;;;;;4.90;4.17;;;10.40;35.80;;;;;;5055338;28;20200;-34
2022/03/28 01:35:58;;;;;;;8.97;3.10;;;10.40;36.00;;;;;;5055414;28;20173;-34
2022/03/28 01:38:24;;;;;;;5.43;3.08;;;10.40;35.90;;;;;;5055330;28;20498;-34
2022/03/28 01:40:52;;;;;;;7.80;4.67;;;10.30;36.10;;;;;;5055156;28;20251;-34
2022/03/28 01:43:20;;;;;;;5.97;4.20;;;10.30;36.00;;;;;;5055183;28;20212;-34
2022/03/28 01:45:46;;;;;;;5.75;3.88;;;10.30;36.20;;;;;;5055283;28;20204;-34
2022/03/28 01:48:12;;;;;;;5.05;3.38;;;10.30;36.10;;;;;;5055156;28;20181;-34
2022/03/28 01:50:38;;;;;;;5.63;4.07;;;10.30;36.00;;;;;;5054842;28;20207;-34
2022/03/28 01:53:04;;;;;;;5.23;3.80;;;10.20;36.10;;;;;;5055055;28;20235;-34
2022/03/28 01:55:30;;;;;;;4.28;3.08;;;10.20;36.00;;;;;;5055014;28;20403;-34
2022/03/28 01:57:56;;;;;;;8.07;4.13;;;10.20;36.30;;;;;;5055022;28;20529;-34
2022/03/28 02:00:24;;;;;;;7.30;4.83;;;10.20;36.00;;;;;;5054796;28;20529;-34
2022/03/28 02:02:50;;;;;;;5.75;2.75;;;10.20;36.20;;;;;;5054664;28;20213;-34
2022/03/28 02:05:17;;;;;;;5.63;3.72;;;10.10;35.90;;;;;;5054784;28;20679;-34
2022/03/28 02:07:46;;;;;;;4.50;3.25;;;10.20;36.00;;;;;;5054865;28;20181;-34
2022/03/28 02:10:15;;;;;;;4.60;3.83;;;10.10;36.20;;;;;;5054757;28;20191;-34
2022/03/28 02:12:42;;;;;;;6.88;2.80;;;10.10;36.40;;;;;;5054691;28;20805;-34
2022/03/28 02:15:10;;;;;;;4.78;3.40;;;10.10;36.30;;;;;;5054634;28;20537;-34
2022/03/28 02:17:37;;;;;;;5.32;3.20;;;10.00;36.30;;;;;;5054852;28;20569;-34
2022/03/28 02:20:08;;;;;;;4.82;2.90;;;10.00;36.30;;;;;;5054406;28;20253;-34
2022/03/28 02:22:35;;;;;;;7.07;3.47;;;10.00;36.50;;;;;;5054440;28;20247;-34
2022/03/28 02:25:06;;;;;;;4.32;3.00;;;10.00;36.50;;;;;;5054438;28;20172;-34
2022/03/28 02:27:32;;;;;;;3.80;2.97;;;9.90;36.60;;;;;;5054430;28;20638;-34
2022/03/28 02:29:57;;;;;;;8.50;4.80;;;10.00;36.60;;;;;;5054188;28;20568;-34
2022/03/28 02:32:23;;;;;;;3.87;2.60;;;9.90;36.30;;;;;;5054184;28;20208;-33
2022/03/28 02:34:49;;;;;;;5.37;3.50;;;9.90;36.50;;;;;;5054333;28;20410;-33
2022/03/28 02:37:15;;;;;;;5.20;3.80;;;9.90;36.30;;;;;;5054161;28;20906;-34
2022/03/28 02:39:41;;;;;;;5.03;3.90;;;9.90;36.30;;;;;;5053984;28;20165;-34
2022/03/28 02:42:07;;;;;;;6.25;3.60;;;9.80;36.40;;;;;;5054451;28;20173;-34
2022/03/28 02:44:33;;;;;;;6.30;3.72;;;9.80;36.50;;;;;;5053895;28;20197;-33
2022/03/28 02:46:58;;;;;;;5.10;3.07;;;9.80;36.70;;;;;;5054034;28;20579;-34
2022/03/28 02:49:24;;;;;;;6.17;5.67;;;9.70;36.80;;;;;;5054133;28;20177;-33
2022/03/28 02:51:50;;;;;;;4.40;2.40;;;9.70;36.80;;;;;;5054218;28;20196;-34
2022/03/28 02:54:16;;;;;;;6.20;3.53;;;9.70;36.80;;;;;;5054077;28;20791;-34
2022/03/28 02:56:42;;;;;;;4.50;3.30;;;9.70;36.90;;;;;;5054036;28;20649;-33
2022/03/28 02:59:07;;;;;;;5.20;3.50;;;9.60;36.80;;;;;;5053817;28;20189;-33
2022/03/28 03:01:34;;;;;;;5.67;2.93;;;9.60;36.80;;;;;;5054299;28;20181;-33
2022/03/28 03:04:00;;;;;;;6.32;3.42;;;9.60;36.80;;;;;;5053603;28;20450;-33
2022/03/28 03:06:26;;;;;;;5.32;3.03;;;9.50;37.00;;;;;;5053916;28;20663;-33
2022/03/28 03:08:51;;;;;;;5.83;3.33;;;9.50;36.80;;;;;;5053833;28;20177;-33
2022/03/28 03:11:17;;;;;;;7.17;4.47;;;9.50;37.00;;;;;;5054072;28;20200;-33
2022/03/28 03:13:43;;;;;;;7.05;4.10;;;9.40;37.90;;;;;;5060815;28;20192;-33
2022/03/28 03:16:09;;;;;;;7.43;3.97;;;9.40;37.20;;;;;;5062929;28;20166;-33
2022/03/28 03:18:35;;;;;;;3.93;2.87;;;9.40;37.20;;;;;;5061961;28;20399;-33
2022/03/28 03:21:01;;;;;;;10.10;3.60;;;9.40;37.40;;;;;;5061801;28;20169;-33
2022/03/28 03:23:27;;;;;;;8.77;3.55;;;9.40;37.50;;;;;;5062012;28;20243;-33
2022/03/28 03:25:53;;;;;;;6.45;3.15;;;9.30;37.70;;;;;;5061304;28;20183;-33
2022/03/28 03:28:20;;;;;;;5.20;2.87;;;9.30;37.40;;;;;;5060837;28;20232;-33
2022/03/28 03:30:48;;;;;;;3.65;2.75;;;9.30;37.40;;;;;;5060444;28;20485;-33
2022/03/28 03:33:14;;;;;;;9.27;4.13;;;9.30;37.10;;;;;;5049760;28;20617;-34
2022/03/28 03:35:40;;;;;;;6.65;2.97;;;9.20;37.40;;;;;;5050734;28;20168;-33
2022/03/28 03:38:05;;;;;;;6.17;3.90;;;9.30;37.20;;;;;;5053056;28;20177;-33
2022/03/28 03:40:32;;;;;;;4.20;3.27;;;9.20;37.10;;;;;;5052809;28;20487;-33
2022/03/28 03:42:57;;;;;;;9.73;3.60;;;9.10;37.40;;;;;;5053004;28;20428;-33
2022/03/28 03:45:23;;;;;;;5.63;3.40;;;9.10;37.30;;;;;;5053074;28;20177;-33
2022/03/28 03:47:49;;;;;;;11.07;4.53;;;9.10;37.30;;;;;;5052877;28;20678;-33
2022/03/28 03:50:14;;;;;;;5.97;3.03;;;9.10;37.30;;;;;;5052748;28;20174;-33
2022/03/28 03:52:40;;;;;;;5.17;3.70;;;9.10;37.40;;;;;;5052727;28;20292;-33
2022/03/28 03:55:07;;;;;;;6.43;3.17;;;9.10;37.30;;;;;;5052795;28;20499;-33
2022/03/28 03:57:33;;;;;;;5.13;3.80;;;9.00;37.10;;;;;;5052735;28;20169;-33
2022/03/28 03:59:59;;;;;;;4.75;2.92;;;9.10;37.20;;;;;;5052417;28;20686;-33
2022/03/28 04:02:25;;;;;;;6.00;3.57;;;9.00;37.30;;;;;;5052457;28;20261;-34
2022/03/28 04:04:50;;;;;;;4.00;3.30;;;9.00;37.00;;;;;;5052711;28;20419;-33
2022/03/28 04:07:16;;;;;;;6.90;3.20;;;9.00;37.30;;;;;;5052817;28;20641;-33
2022/03/28 04:09:42;;;;;;;5.60;4.17;;;9.00;37.30;;;;;;5052281;28;20201;-33
2022/03/28 04:12:08;;;;;;;4.53;4.20;;;8.90;37.30;;;;;;5052427;28;20450;-33
2022/03/28 04:14:34;;;;;;;9.32;2.97;;;8.90;37.60;;;;;;5052594;28;20288;-33
2022/03/28 04:17:00;;;;;;;13.63;4.70;;;8.90;37.40;;;;;;5052335;28;20256;-34
2022/03/28 04:19:26;;;;;;;5.97;4.47;;;8.90;37.50;;;;;;5052021;28;20513;-34
2022/03/28 04:21:52;;;;;;;7.27;3.47;;;8.90;37.40;;;;;;5052567;28;20172;-34
2022/03/28 04:24:17;;;;;;;9.50;5.20;;;8.80;37.40;;;;;;5052497;28;20439;-34
2022/03/28 04:26:43;;;;;;;7.30;4.57;;;8.90;38.10;;;;;;5052161;28;20707;-33
2022/03/28 04:29:09;;;;;;;5.60;3.30;;;8.80;37.40;;;;;;5052007;28;20196;-34
2022/03/28 04:31:37;;;;;;;5.97;5.07;;;8.80;37.40;;;;;;5052014;28;20189;-34
2022/03/28 04:34:03;;;;;;;6.15;2.92;;;8.80;37.60;;;;;;5051383;28;20317;-33
2022/03/28 04:36:29;;;;;;;5.30;2.93;;;8.80;37.50;;;;;;5043829;28;20705;-34
2022/03/28 04:38:54;;;;;;;4.83;3.50;;;8.80;37.50;;;;;;5051588;28;20174;-33
2022/03/28 04:41:20;;;;;;;3.60;2.70;;;8.80;37.70;;;;;;5052056;28;20624;-33
2022/03/28 04:43:46;;;;;;;4.60;3.67;;;8.70;37.80;;;;;;5051670;28;20291;-33
2022/03/28 04:46:12;;;;;;;7.90;3.57;;;8.70;37.80;;;;;;5051732;28;20185;-33
2022/03/28 04:48:37;;;;;;;9.13;5.50;;;8.70;38.40;;;;;;5051764;28;20329;-33
2022/03/28 04:51:03;;;;;;;3.50;2.40;;;8.70;38.00;;;;;;5046251;28;20502;-33
2022/03/28 04:53:29;;;;;;;4.70;3.00;;;8.70;38.00;;;;;;5047858;28;20204;-33
2022/03/28 04:55:54;;;;;;;7.00;5.33;;;8.60;37.80;;;;;;5052119;28;20201;-33
2022/03/28 04:58:20;;;;;;;11.40;3.93;;;8.60;38.00;;;;;;5052188;28;20183;-33
2022/03/28 05:00:46;;;;;;;5.97;3.30;;;8.60;37.90;;;;;;5052508;28;20170;-33
2022/03/28 05:03:12;;;;;;;11.15;3.83;;;8.60;37.90;;;;;;5051834;28;20297;-33
2022/03/28 05:05:37;;;;;;;4.73;4.27;;;8.60;37.80;;;;;;5051909;28;20754;-33
2022/03/28 05:08:03;;;;;;;8.97;3.37;;;8.60;37.80;;;;;;5051820;28;20165;-33
2022/03/28 05:10:29;;;;;;;4.80;3.40;;;8.60;37.80;;;;;;5051441;28;20255;-33
2022/03/28 05:12:55;;;;;;;4.63;3.00;;;8.60;37.70;;;;;;5052010;28;20332;-33
2022/03/28 05:15:21;;;;;;;7.17;3.93;;;8.60;37.80;;;;;;5051776;28;20204;-33
2022/03/28 05:17:46;;;;;;;4.57;3.20;;;8.60;38.00;;;;;;5051618;28;20176;-33
2022/03/28 05:20:12;;;;;;;4.40;3.37;;;8.70;38.10;;;;;;5051456;28;20248;-33
2022/03/28 05:22:38;;;;;;;8.13;3.77;;;8.70;38.00;;;;;;5051909;28;20244;-33
2022/03/28 05:25:05;;;;;;;4.33;2.53;;;8.70;38.00;;;;;;5051600;28;20176;-33
2022/03/28 05:27:31;;;;;;;5.63;3.58;;;8.70;38.20;;;;;;5051951;28;20410;-33
2022/03/28 05:29:58;;;;;;;6.93;3.63;;;8.80;38.60;;;;;;5051331;28;20166;-33
2022/03/28 05:32:24;;;;;;;9.30;4.45;;;8.80;39.00;;;;;;5051276;28;20201;-33
2022/03/28 05:34:49;;;;;;;5.87;3.77;;;8.80;38.20;;;;;;5051485;28;20222;-33
2022/03/28 05:37:17;;;;;;;11.13;5.07;;;8.90;38.50;;;;;;5051468;28;20181;-33
2022/03/28 05:39:46;;;;;;;4.40;3.25;;;8.90;38.40;;;;;;5050298;28;20239;-33
2022/03/28 05:42:12;;;;;;;11.52;5.40;;;8.90;38.30;;;;;;5042817;28;20184;-33
2022/03/28 05:44:40;;;;;;;7.00;4.23;;;9.00;38.20;;;;;;5051598;28;20176;-33
2022/03/28 05:47:06;;;;;;;8.00;4.55;;;9.10;38.00;;;;;;5051357;28;20396;-33
2022/03/28 05:49:32;;;;;;;6.40;3.90;;;9.20;38.10;;;;;;5051375;28;20533;-33
2022/03/28 05:51:58;;;;;;;10.13;4.37;;;9.30;38.10;;;;;;5051189;28;20193;-33
2022/03/28 05:54:24;;;;;;;10.27;6.07;;;9.40;38.00;;;;;;5051131;28;20434;-33
2022/03/28 05:56:50;;;;;;;8.67;4.60;;;9.50;38.70;;;;;;5053849;28;20172;-33
2022/03/28 05:59:16;;;;;;;8.13;4.90;;;9.50;38.30;;;;;;5054742;28;20170;-33
2022/03/28 06:01:41;;;;;;;7.10;4.47;;;9.60;38.10;;;;;;5046611;28;20420;-33
2022/03/28 06:04:07;;;;;;;6.73;4.70;;;9.70;38.00;;;;;;5054643;28;20447;-33
2022/03/28 06:06:33;;;;;;;11.70;5.17;;;9.80;38.60;;;;;;5054778;28;20411;-33
2022/03/28 06:09:00;;;;;;;9.38;5.45;;;9.90;38.10;;;;;;5054479;28;20184;-33
2022/03/28 06:11:26;;;;;;;6.55;4.18;;;10.00;38.00;;;;;;5054618;28;20605;-33
2022/03/28 06:13:53;;;;;;;7.40;4.53;;;10.10;38.10;;;;;;5054572;28;20185;-33
2022/03/28 06:16:19;;;;;;;9.05;4.15;;;10.20;38.20;;;;;;5054862;28;20489;-33
2022/03/28 06:18:46;;;;;;;5.57;4.22;;;10.30;37.80;;;;;;5054707;28;20166;-33
2022/03/28 06:21:11;;;;;;;12.02;5.20;;;10.40;38.00;;;;;;5054487;28;20694;-33
2022/03/28 06:23:37;;;;;;;3.80;3.30;;;10.40;38.10;;;;;;5054895;28;20200;-33
2022/03/28 06:26:04;;;;;;;7.75;3.95;;;10.50;38.60;;;;;;5054427;28;20419;-33
2022/03/28 06:28:30;;;;;;;4.57;3.78;;;10.60;37.80;;;;;;5054304;28;20220;-33
2022/03/28 06:30:57;;;;;;;6.95;6.15;;;10.70;37.70;;;;;;5054240;28;20290;-33
2022/03/28 06:33:23;;;;;;;11.55;5.20;;;10.80;37.60;;;;;;5055077;28;20205;-33
2022/03/28 06:35:50;;;;;;;7.30;4.70;;;11.00;37.70;;;;;;5054362;28;20188;-33
2022/03/28 06:38:15;;;;;;;5.57;4.30;;;11.00;37.50;;;;;;5054265;28;20170;-33
2022/03/28 06:40:41;;;;;;;9.40;5.53;;;11.00;37.40;;;;;;5054720;28;20257;-33
2022/03/28 06:43:07;;;;;;;5.60;3.93;;;11.00;37.70;;;;;;5054151;28;20222;-33
2022/03/28 06:45:36;;;;;;;4.60;4.03;;;11.20;37.70;;;;;;5054114;28;20177;-33
2022/03/28 06:48:02;;;;;;;6.88;4.70;;;11.30;37.80;;;;;;5054042;28;20181;-33
2022/03/28 06:50:28;;;;;;;8.40;5.63;;;11.40;37.40;;;;;;5054163;28;20205;-33
2022/03/28 06:52:54;;;;;;;13.53;5.53;;;11.60;37.60;;;;;;5053920;28;20886;-33
2022/03/28 06:55:20;;;;;;;6.63;4.35;;;11.60;37.50;;;;;;5054006;28;20168;-33
2022/03/28 06:57:46;;;;;;;7.25;4.30;;;11.70;37.20;;;;;;5053954;28;20199;-33
2022/03/28 07:00:13;;;;;;;5.07;4.10;;;11.90;37.30;;;;;;5053969;28;20853;-33
2022/03/28 07:02:39;;;;;;;7.57;3.58;;;12.00;37.10;;;;;;5053455;28;20212;-33
2022/03/28 07:05:07;;;;;;;6.75;4.63;;;12.10;37.00;;;;;;5053775;28;20264;-33
2022/03/28 07:07:44;;;;;;;9.38;6.40;;;12.20;37.20;;;;;;5052728;28;20387;-33
2022/03/28 07:10:11;;;;;;;9.15;5.13;;;12.30;37.00;;;;;;5053991;28;20165;-33
2022/03/28 07:12:38;;;;;;;7.57;4.22;;;12.50;37.10;;;;;;5053406;28;20205;-33
2022/03/28 07:15:05;;;;;;;5.82;4.28;;;12.70;36.90;;;;;;5053552;28;20176;-34
2022/03/28 07:17:33;;;;;;;8.25;5.00;;;12.90;36.50;;;;;;5053736;28;20177;-33
2022/03/28 07:19:59;;;;;;;7.43;4.43;;;13.00;36.40;;;;;;5053306;28;20162;-33
2022/03/28 07:22:24;;;;;;;5.47;3.90;;;13.20;36.80;;;;;;5053453;28;20514;-33
2022/03/28 07:24:50;;;;;;;8.53;4.20;;;13.30;36.00;;;;;;5053402;28;20407;-33
2022/03/28 07:27:17;;;;;;;9.43;4.97;;;13.40;36.00;;;;;;5053371;28;20173;-33
2022/03/28 07:29:43;;;;;;;7.78;4.20;;;13.50;36.20;;;;;;5053011;28;20461;-34
2022/03/28 07:32:09;;;;;;;8.73;5.43;;;13.80;35.90;;;;;;5053506;28;20208;-34
2022/03/28 07:34:35;;;;;;;7.38;4.57;;;13.90;35.60;;;;;;5053077;28;20852;-33
2022/03/28 07:37:05;;;;;;;7.95;4.90;;;14.10;35.60;;;;;;5053078;28;20734;-34
2022/03/28 07:39:34;;;;;;;9.40;5.07;;;14.30;35.30;;;;;;5052825;28;20169;-34
2022/03/28 07:42:01;;;;;;;8.98;4.88;;;14.40;34.80;;;;;;5053135;28;20193;-34
2022/03/28 07:44:26;;;;;;;7.53;4.65;;;14.60;34.50;;;;;;5052850;28;20185;-34
2022/03/28 07:46:52;;;;;;;8.40;4.73;;;14.70;34.70;;;;;;5052755;28;20681;-34
2022/03/28 07:49:18;;;;;;;9.17;4.80;;;14.80;34.50;;;;;;5052645;28;20212;-34
2022/03/28 07:51:45;;;;;;;8.80;4.73;;;15.00;34.50;;;;;;5052743;28;20489;-34
2022/03/28 07:54:11;;;;;;;11.75;5.32;;;15.20;33.80;;;;;;5052891;28;20204;-34
2022/03/28 07:56:37;;;;;;;8.20;5.20;;;15.30;34.00;;;;;;5052767;28;20170;-34
2022/03/28 07:59:03;;;;;;;7.00;5.20;;;15.50;34.00;;;;;;5052396;28;20169;-34
2022/03/28 08:01:29;;;;;;;4.83;4.07;;;15.60;34.10;;;;;;5052634;28;20420;-34
2022/03/28 08:03:55;;;;;;;9.40;5.73;;;15.80;33.80;;;;;;5052506;28;20443;-34
2022/03/28 08:06:21;;;;;;;7.47;4.90;;;16.10;34.00;;;;;;5052668;28;20177;-34
2022/03/28 08:08:47;;;;;;;8.48;4.25;;;16.30;33.40;;;;;;5052360;28;20252;-34
2022/03/28 08:11:15;;;;;;;6.88;5.15;;;16.50;33.30;;;;;;5052465;28;20275;-34
2022/03/28 08:13:41;;;;;;;8.63;5.15;;;16.70;32.70;;;;;;5052371;28;20185;-34
2022/03/28 08:16:08;;;;;;;9.40;4.90;;;16.90;33.20;;;;;;5050939;28;20227;-34
2022/03/28 08:18:36;;;;;;;8.20;5.70;;;17.10;32.90;;;;;;5043669;28;20412;-34
2022/03/28 08:21:02;;;;;;;8.35;5.28;;;17.30;32.00;;;;;;5052461;28;20255;-34
2022/03/28 08:23:27;;;;;;;7.37;4.80;;;17.40;31.60;;;;;;5052258;28;20212;-34
2022/03/28 08:25:53;;;;;;;8.87;5.70;;;17.60;32.30;;;;;;5052859;28;20418;-34
2022/03/28 08:28:19;;;;;;;10.97;6.07;;;17.80;32.60;;;;;;5052209;28;20507;-34
2022/03/28 08:30:45;;;;;;;13.68;6.57;;;18.00;32.20;;;;;;5052029;28;20169;-34
2022/03/28 08:33:11;;;;;;;6.47;4.80;;;18.20;32.10;;;;;;5052327;28;20327;-34
2022/03/28 08:35:37;;;;;;;9.00;6.40;;;18.40;32.20;;;;;;5043709;28;20634;-34
2022/03/28 08:38:03;;;;;;;9.90;5.78;;;18.60;31.90;;;;;;5052065;28;20715;-34
2022/03/28 08:40:29;;;;;;;10.10;5.22;;;18.80;30.90;;;;;;5051930;28;20255;-34
2022/03/28 08:42:55;;;;;;;9.57;5.30;;;18.90;31.80;;;;;;5043355;28;20653;-34
2022/03/28 08:45:21;;;;;;;8.47;5.40;;;19.00;30.20;;;;;;5052035;28;20665;-34
2022/03/28 08:47:49;;;;;;;7.10;5.70;;;19.20;29.80;;;;;;5052986;28;20415;-34
2022/03/28 08:50:16;;;;;;;9.80;6.20;;;19.10;29.70;;;;;;5051799;28;20625;-34
2022/03/28 08:52:43;;;;;;;10.02;6.95;;;19.20;29.40;;;;;;5051813;28;20216;-34
2022/03/28 08:55:13;;;;;;;10.55;6.32;;;19.20;29.40;;;;;;5051827;28;20204;-34
2022/03/28 08:57:39;;;;;;;7.55;4.88;;;19.30;30.70;;;;;;5052180;28;20565;-34
2022/03/28 09:00:08;;;;;;;12.60;6.13;;;19.50;30.10;;;;;;5051779;28;20590;-34
2022/03/28 09:02:41;;;;;;;9.63;5.95;;;19.80;30.30;;;;;;5051666;28;20675;-34
2022/03/28 09:05:18;;;;;;;9.65;7.68;;;19.90;29.30;;;;;;5051875;28;20177;-34
2022/03/28 09:07:44;;;;;;;11.02;6.25;;;20.00;29.20;;;;;;5051837;28;20258;-34
2022/03/28 09:10:16;;;;;;;10.18;6.68;;;20.20;29.60;;;;;;5051736;28;20178;-34
2022/03/28 09:12:57;;;;;;;13.00;7.13;;;20.40;30.20;;;;;;5051960;28;20205;-34
2022/03/28 09:15:23;;;;;;;11.80;7.50;;;20.50;28.30;;;;;;5051764;28;20253;-34
2022/03/28 09:17:57;;;;;;;10.10;7.20;;;20.50;28.60;;;;;;5051695;28;20200;-34
2022/03/28 09:20:24;;;;;;;15.30;8.55;;;20.70;29.10;;;;;;5051332;28;20450;-34
2022/03/28 09:22:51;;;;;;;12.85;6.20;;;20.90;28.70;;;;;;5051897;28;20204;-34
2022/03/28 09:25:18;;;;;;;9.45;6.55;;;21.10;27.40;;;;;;5051867;28;20223;-34
2022/03/28 09:27:45;;;;;;;9.07;5.97;;;21.10;28.40;;;;;;5051461;28;20205;-34
2022/03/28 09:30:16;;;;;;;12.95;8.00;;;21.30;29.10;;;;;;5051341;28;20201;-34
2022/03/28 09:32:43;;;;;;;13.80;7.90;;;21.60;28.80;;;;;;5055327;28;20291;-34
2022/03/28 09:35:12;;;;;;;12.63;7.87;;;21.70;27.30;;;;;;5055456;28;20166;-34
2022/03/28 09:37:51;;;;;;;16.23;7.37;;;21.70;27.00;;;;;;5055413;28;20445;-34
2022/03/28 09:40:24;;;;;;;13.60;8.90;;;21.80;28.30;;;;;;5055200;28;20399;-34
2022/03/28 09:42:51;;;;;;;11.77;9.25;;;22.10;29.00;;;;;;5055326;28;20425;-34
2022/03/28 09:45:22;;;;;;;13.50;7.90;;;22.40;28.80;;;;;;5055186;28;20169;-34
2022/03/28 09:48:19;;;;;;;15.80;7.40;;;22.60;26.10;;;;;;5055171;28;20412;-34
2022/03/28 09:50:48;;;;;;;18.73;8.53;;;22.50;26.20;;;;;;5054290;28;20420;-34
2022/03/28 09:53:16;;;;;;;11.40;8.70;;;22.40;26.40;;;;;;5055100;28;20454;-34
2022/03/28 09:55:47;;;;;;;13.73;8.63;;;22.60;27.30;;;;;;5055076;28;20400;-34
2022/03/28 09:58:46;;;;;;;13.90;9.30;;;22.80;26.90;;;;;;5055043;28;20806;-34
2022/03/28 10:01:22;;;;;;;13.17;8.63;;;22.90;26.30;;;;;;5054943;28;20410;-34
2022/03/28 10:03:50;;;;;;;18.37;9.50;;;23.10;27.10;;;;;;5054727;28;20496;-34
2022/03/28 10:06:17;;;;;;;10.73;7.63;;;23.30;26.80;;;;;;5055098;28;20414;-34
2022/03/28 10:08:44;;;;;;;11.70;8.43;;;23.40;26.10;;;;;;5054793;28;20446;-34
2022/03/28 10:11:10;;;;;;;10.07;6.83;;;23.50;25.30;;;;;;5054647;28;20451;-34
2022/03/28 10:13:37;;;;;;;13.10;8.67;;;23.50;26.40;;;;;;5054509;28;20474;-34
2022/03/28 10:16:04;;;;;;;9.80;6.90;;;23.70;25.60;;;;;;5054701;28;20404;-34
2022/03/28 10:18:35;;;;;;;10.33;7.67;;;23.80;26.20;;;;;;5066714;22;20506;-36
2022/03/28 10:21:10;;;;;;;10.53;7.03;;;23.80;25.90;;;;;;5039752;28;20423;-36
2022/03/28 10:23:44;;;;;;;8.83;7.40;;;23.80;25.30;;;;;;5052071;28;20452;-36
2022/03/28 10:26:13;;;;;;;16.03;11.80;;;23.90;26.30;;;;;;5054454;28;20751;-36
2022/03/28 10:28:39;;;;;;;12.40;11.17;;;24.20;26.30;;;;;;5038828;28;20449;-36
2022/03/28 10:31:18;;;;;;;14.60;8.47;;;24.40;26.40;;;;;;5053591;28;20450;-36
2022/03/28 10:33:52;;;;;;;13.20;9.10;;;24.40;23.70;;;;;;5053758;28;20443;-36
2022/03/28 10:36:24;;;;;;;12.57;7.33;;;24.10;24.30;;;;;;5054145;28;20400;-36
2022/03/28 10:38:51;;;;;;;8.97;5.50;;;24.10;24.10;;;;;;5053777;28;20423;-36
2022/03/28 10:41:18;;;;;;;9.00;6.23;;;24.30;25.20;;;;;;5053935;28;20416;-36
2022/03/28 10:43:45;;;;;;;7.10;5.20;;;24.60;25.70;;;;;;5052813;28;20763;-36
2022/03/28 10:46:12;;;;;;;14.43;8.30;;;24.90;25.50;;;;;;5053532;28;20416;-36
2022/03/28 10:48:53;;;;;;;11.93;8.10;;;25.30;25.60;;;;;;5053751;28;20424;-36
2022/03/28 10:51:26;;;;;;;10.30;6.47;;;25.50;23.80;;;;;;5053810;28;21068;-37
2022/03/28 10:53:58;;;;;;;13.23;10.30;;;25.70;22.30;;;;;;5053745;28;20892;-36
2022/03/28 10:56:49;;;;;;;13.80;7.40;;;25.50;23.00;;;;;;5053881;28;20423;-36
2022/03/28 10:59:20;;;;;;;11.57;6.97;;;25.70;22.50;;;;;;5053785;28;20385;-36
2022/03/28 11:01:54;;;;;;;16.57;11.43;;;25.60;20.80;;;;;;5053633;28;20938;-36
2022/03/28 11:04:25;;;;;;;14.80;8.87;;;25.70;22.00;;;;;;5053728;28;20457;-36
2022/03/28 11:07:01;;;;;;;28.20;18.80;;;25.80;22.30;;;;;;5053727;28;20398;-36
2022/03/28 11:09:44;;;;;;;10.10;6.40;;;25.80;21.80;;;;;;5053234;28;20441;-36
2022/03/28 11:12:16;;;;;;;14.87;9.27;;;25.60;21.20;;;;;;5052861;28;20449;-36
2022/03/28 11:14:43;;;;;;;14.60;10.80;;;25.40;22.00;;;;;;5053325;28;20408;-36
2022/03/28 11:17:16;;;;;;;14.10;10.43;;;25.30;22.80;;;;;;5053005;28;20435;-36
2022/03/28 11:19:56;;;;;;;11.17;7.63;;;25.50;23.60;;;;;;5052940;28;20402;-36
2022/03/28 11:22:47;;;;;;;366.53;212.13;;;25.70;20.90;;;;;;5048356;28;20487;-36
2022/03/28 11:25:46;;;;;;;20.50;13.77;;;25.60;23.00;;;;;;5033286;28;20408;-36
2022/03/28 11:28:26;;;;;;;43.80;28.13;;;25.70;21.90;;;;;;5010429;28;20855;-36
2022/03/28 11:31:18;;;;;;;168.30;95.23;;;25.90;22.70;;;;;;5035250;28;20408;-36
2022/03/28 11:33:47;;;;;;;38.77;25.40;;;26.30;22.10;;;;;;5049123;28;20426;-37
2022/03/28 11:36:14;;;;;;;23.03;12.10;;;26.50;21.10;;;;;;5052694;28;20407;-36
2022/03/28 11:38:45;;;;;;;10.70;7.20;;;26.60;20.90;;;;;;5052565;28;20423;-36
2022/03/28 11:41:12;;;;;;;8.80;6.90;;;26.80;21.30;;;;;;5052798;28;20416;-36
2022/03/28 11:43:39;;;;;;;7.20;5.37;;;27.00;21.60;;;;;;5052688;28;20443;-37
2022/03/28 11:46:32;;;;;;;32.10;13.00;;;27.10;19.10;;;;;;5052485;28;20446;-36
2022/03/28 11:49:09;;;;;;;12.83;7.73;;;27.20;20.70;;;;;;5050766;28;20493;-37
2022/03/28 11:51:40;;;;;;;12.17;8.50;;;27.40;20.00;;;;;;5052765;28;20530;-37
2022/03/28 11:54:18;;;;;;;12.27;7.80;;;27.40;19.70;;;;;;5052034;28;20380;-37
2022/03/28 11:59:31;;;;;;;8.67;5.87;;;27.10;19.20;;;;;;5052652;28;20433;-37
2022/03/28 12:01:59;;;;;;;9.90;5.30;;;27.20;20.50;;;;;;5052296;28;20537;-37
2022/03/28 12:04:25;;;;;;;12.13;7.90;;;27.30;20.00;;;;;;5052745;28;20400;-37
2022/03/28 12:06:52;;;;;;;9.10;5.40;;;27.20;19.00;;;;;;5043587;28;20506;-37
2022/03/28 12:09:20;;;;;;;20.07;14.63;;;27.20;20.70;;;;;;5051112;28;20494;-36
2022/03/28 12:11:51;;;;;;;17.27;7.87;;;27.30;20.90;;;;;;5052076;28;20930;-37
2022/03/28 12:14:17;;;;;;;7.30;5.20;;;27.40;19.70;;;;;;5045319;28;20924;-37
2022/03/28 12:16:50;;;;;;;6.70;4.70;;;27.40;16.80;;;;;;5050105;28;20485;-37
2022/03/28 12:19:20;;;;;;;7.93;5.43;;;27.10;17.40;;;;;;5045373;28;20536;-37
2022/03/28 12:21:47;;;;;;;7.67;5.27;;;26.90;18.50;;;;;;5050595;28;20986;-36
2022/03/28 12:24:13;;;;;;;8.10;5.20;;;26.70;17.10;;;;;;5051943;28;20404;-37
2022/03/28 12:26:43;;;;;;;8.20;5.23;;;26.80;19.10;;;;;;5051622;28;20457;-37
2022/03/28 12:29:13;;;;;;;13.70;9.80;;;26.90;17.30;;;;;;5051627;28;20251;-37
2022/03/28 12:31:47;;;;;;;9.87;6.90;;;26.60;17.60;;;;;;5051920;28;20439;-37
2022/03/28 12:34:14;;;;;;;8.33;5.07;;;26.40;17.90;;;;;;5052099;28;20419;-36
2022/03/28 12:36:40;;;;;;;8.17;6.13;;;26.40;19.50;;;;;;5051817;28;20399;-36
2022/03/28 12:39:10;;;;;;;11.30;7.57;;;26.70;20.20;;;;;;5051562;28;20419;-37
2022/03/28 12:41:44;;;;;;;9.73;6.57;;;27.10;20.30;;;;;;5051639;28;20414;-36
2022/03/28 12:44:15;;;;;;;8.93;6.73;;;27.30;20.00;;;;;;5051596;28;20564;-37
2022/03/28 12:46:41;;;;;;;42.23;28.67;;;27.40;19.60;;;;;;5050155;28;20431;-36
2022/03/28 12:49:13;;;;;;;10.17;7.60;;;27.40;18.40;;;;;;5044376;28;20431;-37
2022/03/28 12:51:40;;;;;;;11.43;8.83;;;27.40;17.70;;;;;;5049238;28;20452;-37